createdAt,value
2022-10-29T10:11:27.991Z,19.53
2022-10-29T10:12:28.000Z,19.50
2022-10-29T10:13:27.995Z,19.53
2022-10-29T10:14:27.763Z,19.53
2022-10-29T10:15:27.805Z,19.49
2022-10-29T10:16:27.603Z,19.52
2022-10-29T10:17:27.548Z,19.59
2022-10-29T10:18:27.478Z,19.57
2022-10-29T10:19:27.430Z,19.59
2022-10-29T10:20:27.380Z,19.67
2022-10-29T10:21:27.302Z,19.67
2022-10-29T10:22:27.238Z,19.64
2022-10-29T10:24:48.217Z,19.68
2022-10-29T10:25:48.157Z,19.72
2022-10-29T10:30:55.478Z,20.02
2022-10-29T10:31:55.357Z,20.02
2022-10-29T10:33:59.762Z,20.09
2022-10-29T10:35:07.362Z,20.14
2022-10-29T10:37:03.989Z,20.14
2022-10-29T10:38:03.925Z,20.18
2022-10-29T10:40:08.279Z,20.22
2022-10-29T10:41:08.189Z,20.25
2022-10-29T10:42:08.114Z,20.25
2022-10-29T10:43:08.984Z,20.36
2022-10-29T10:44:08.021Z,20.33
2022-10-29T10:45:07.937Z,20.36
2022-10-29T10:46:07.867Z,20.27
2022-10-29T10:47:07.808Z,20.39
2022-10-29T10:48:07.883Z,20.42
2022-10-29T10:49:07.693Z,20.50
2022-10-29T10:50:07.628Z,20.50
2022-10-29T10:51:07.569Z,20.58
2022-10-29T10:52:07.505Z,20.60
2022-10-29T10:53:07.442Z,20.63
2022-10-29T10:58:33.159Z,20.75
2022-10-29T10:59:33.060Z,20.85
2022-10-29T11:06:01.941Z,20.90
2022-10-29T11:07:01.853Z,21.01
2022-10-29T11:10:27.803Z,21.03
2022-10-29T11:11:27.702Z,21.05
2022-10-29T11:12:27.631Z,21.08
2022-10-29T11:13:27.555Z,21.05
2022-10-29T11:14:27.503Z,21.13
2022-10-29T11:15:27.545Z,21.11
2022-10-29T11:16:27.378Z,21.20
2022-10-29T11:17:27.317Z,21.14
2022-10-29T11:18:28.562Z,21.19
2022-10-29T11:19:27.958Z,21.23
2022-10-29T11:20:27.134Z,21.26
2022-10-29T11:21:27.070Z,21.25
2022-10-29T11:22:27.032Z,21.26
2022-10-29T11:23:26.958Z,21.30
2022-10-29T11:24:26.894Z,21.30
2022-10-29T11:25:34.640Z,21.32
2022-10-29T12:11:47.408Z,22.51
2022-10-29T12:12:47.278Z,22.55
2022-10-29T12:28:26.249Z,22.52
2022-10-29T12:29:26.107Z,22.56
2022-10-29T12:49:38.956Z,22.99
2022-10-29T12:50:38.894Z,23.03
2022-10-29T13:11:02.827Z,23.22
2022-10-29T13:12:02.790Z,23.15
2022-10-29T13:38:32.744Z,23.41
2022-10-29T13:39:32.676Z,23.46
2022-10-29T14:02:49.149Z,23.39
2022-10-29T14:03:48.928Z,23.31
2022-10-29T14:04:48.917Z,23.31
2022-10-29T14:05:48.813Z,23.29
2022-10-29T14:06:48.749Z,23.33
2022-10-29T14:07:48.695Z,23.29
2022-10-29T14:08:48.633Z,23.28
2022-10-29T14:09:48.582Z,23.26
2022-10-29T14:10:48.532Z,23.29
2022-10-29T14:11:48.473Z,23.33
2022-10-29T14:12:48.424Z,23.31
2022-10-29T14:13:48.348Z,23.29
2022-10-29T14:14:48.285Z,23.25
2022-10-29T14:15:48.240Z,23.21
2022-10-29T14:16:48.221Z,23.22
2022-10-29T14:34:26.386Z,22.98
2022-10-29T14:35:26.291Z,23.01
2022-10-29T15:23:06.651Z,21.93
2022-10-29T15:24:06.738Z,21.80
2022-10-29T16:01:05.412Z,20.55
2022-10-29T16:02:05.309Z,20.42
2022-10-29T16:03:05.187Z,20.39
2022-10-29T16:04:05.136Z,20.42
2022-10-29T16:05:05.085Z,20.37
2022-10-29T16:06:05.016Z,20.29
2022-10-29T16:07:04.951Z,20.37
2022-10-29T16:08:04.881Z,20.30
2022-10-29T16:09:04.823Z,20.32
2022-10-29T16:10:04.782Z,20.23
2022-10-29T16:11:04.713Z,20.15
2022-10-29T16:12:04.648Z,20.18
2022-10-29T16:13:04.614Z,20.14
2022-10-29T16:14:04.522Z,20.08
2022-10-29T16:15:04.465Z,20.05
2022-10-29T16:16:13.312Z,20.04
2022-10-29T16:24:18.212Z,19.77
2022-10-29T16:25:18.261Z,19.71
2022-10-29T16:30:15.364Z,19.44
2022-10-29T16:31:15.189Z,19.38
2022-10-29T16:43:52.375Z,18.91
2022-10-29T16:44:52.076Z,18.86
2022-10-29T16:49:49.859Z,18.66
2022-10-29T16:50:49.152Z,18.54
2022-10-29T17:01:53.750Z,18.27
2022-10-29T17:02:53.398Z,18.20
2022-10-29T17:03:53.418Z,18.24
2022-10-29T17:04:53.265Z,18.20
2022-10-29T17:05:53.435Z,18.21
2022-10-29T17:06:53.231Z,18.15
2022-10-29T17:07:53.049Z,18.12
2022-10-29T17:08:52.987Z,18.06
2022-10-29T17:09:52.916Z,18.06
2022-10-29T17:10:52.851Z,18.08
2022-10-29T17:11:52.794Z,18.09
2022-10-29T17:12:52.726Z,18.02
2022-10-29T17:13:52.696Z,18.02
2022-10-29T17:14:52.613Z,18.01
2022-10-29T17:16:00.342Z,18.02
2022-10-29T17:17:57.335Z,17.99
2022-10-29T17:19:04.541Z,17.99
2022-10-29T17:21:01.215Z,17.83
2022-10-29T17:22:01.105Z,17.84
2022-10-29T17:23:56.428Z,17.91
2022-10-29T17:24:56.340Z,17.84
2022-10-29T17:26:49.672Z,17.86
2022-10-29T17:27:49.565Z,17.84
2022-10-29T17:29:53.899Z,17.78
2022-10-29T17:30:53.822Z,17.59
2022-10-29T17:32:59.550Z,17.49
2022-10-29T17:33:59.111Z,17.65
2022-10-29T17:34:59.020Z,17.47
2022-10-29T17:35:58.989Z,17.49
2022-10-29T17:36:58.902Z,17.49
2022-10-29T17:37:58.845Z,17.45
2022-10-29T17:38:58.784Z,17.45
2022-10-29T17:40:03.034Z,17.43
2022-10-29T17:40:58.660Z,17.43
2022-10-29T17:41:58.593Z,17.45
2022-10-29T17:42:59.032Z,17.37
2022-10-29T17:43:58.463Z,17.41
2022-10-29T17:44:58.404Z,17.35
2022-10-29T17:45:58.340Z,17.25
2022-10-29T17:47:05.954Z,17.24
2022-10-29T17:49:02.741Z,17.17
2022-10-29T17:50:02.591Z,17.22
2022-10-29T17:52:07.160Z,17.16
2022-10-29T17:53:07.042Z,17.12
2022-10-29T17:55:12.384Z,17.07
2022-10-29T17:56:12.315Z,17.04
2022-10-29T17:58:06.176Z,17.02
2022-10-29T17:59:05.496Z,16.98
2022-10-29T18:01:09.975Z,16.98
2022-10-29T18:02:09.934Z,16.97
2022-10-29T18:05:47.184Z,16.98
2022-10-29T18:06:47.124Z,16.95
2022-10-29T18:08:51.502Z,16.95
2022-10-29T18:09:51.394Z,16.90
2022-10-29T18:11:55.915Z,16.97
2022-10-29T18:12:55.868Z,16.91
2022-10-29T18:13:55.784Z,16.95
2022-10-29T18:14:55.736Z,16.87
2022-10-29T18:15:55.764Z,16.87
2022-10-29T18:16:55.633Z,16.88
2022-10-29T18:17:55.539Z,16.88
2022-10-29T18:19:02.269Z,16.88
2022-10-29T18:19:55.409Z,16.82
2022-10-29T18:20:55.352Z,16.74
2022-10-29T18:21:55.283Z,16.77
2022-10-29T18:22:56.150Z,16.73
2022-10-29T18:23:55.161Z,16.82
2022-10-29T18:24:55.093Z,16.72
2022-10-29T18:25:55.034Z,16.74
2022-10-29T18:26:54.974Z,16.72
2022-10-29T18:27:54.910Z,16.76
2022-10-29T18:28:54.849Z,16.80
2022-10-29T18:29:54.779Z,16.74
2022-10-29T18:30:54.722Z,16.74
2022-10-29T18:31:54.659Z,16.76
2022-10-29T18:32:54.969Z,16.74
2022-10-29T18:33:54.530Z,16.69
2022-10-29T18:34:54.493Z,16.64
2022-10-29T18:35:54.407Z,16.65
2022-10-29T18:36:54.342Z,16.65
2022-10-29T18:37:54.631Z,16.62
2022-10-29T18:38:54.223Z,16.58
2022-10-29T18:39:54.164Z,16.59
2022-10-29T18:40:54.097Z,16.57
2022-10-29T18:41:54.047Z,16.69
2022-10-29T18:42:53.988Z,16.62
2022-10-29T18:43:53.911Z,16.64
2022-10-29T18:44:53.847Z,16.61
2022-10-29T18:45:53.789Z,16.58
2022-10-29T18:46:53.731Z,16.62
2022-10-29T18:47:53.672Z,16.46
2022-10-29T18:48:53.603Z,16.43
2022-10-29T18:49:53.539Z,16.47
2022-10-29T18:50:53.473Z,16.52
2022-10-29T18:51:53.414Z,16.55
2022-10-29T18:52:53.351Z,16.47
2022-10-29T18:53:53.290Z,16.52
2022-10-29T18:54:53.284Z,16.51
2022-10-29T18:55:53.158Z,16.44
2022-10-29T18:56:53.096Z,16.40
2022-10-29T18:57:53.041Z,16.44
2022-10-29T18:58:52.978Z,16.40
2022-10-29T18:59:52.918Z,16.37
2022-10-29T19:00:52.942Z,16.37
2022-10-29T19:01:52.931Z,16.34
2022-10-29T19:02:52.741Z,16.28
2022-10-29T19:03:52.664Z,16.32
2022-10-29T19:04:52.612Z,16.29
2022-10-29T19:05:52.536Z,16.36
2022-10-29T19:06:52.472Z,16.28
2022-10-29T19:07:52.414Z,16.17
2022-10-29T19:08:52.355Z,16.21
2022-10-29T19:09:52.296Z,16.22
2022-10-29T19:10:52.234Z,16.28
2022-10-29T19:11:55.333Z,16.24
2022-10-29T19:12:52.097Z,16.22
2022-10-29T19:13:52.038Z,16.17
2022-10-29T19:14:51.985Z,16.16
2022-10-29T19:15:51.909Z,16.16
2022-10-29T19:16:51.851Z,16.18
2022-10-29T19:17:51.785Z,16.24
2022-10-29T19:18:51.766Z,16.25
2022-10-29T19:19:51.659Z,16.25
2022-10-29T19:20:51.600Z,16.21
2022-10-29T19:21:51.541Z,16.24
2022-10-29T19:22:51.475Z,16.29
2022-10-29T19:23:51.412Z,16.26
2022-10-29T19:24:51.361Z,16.28
2022-10-29T19:25:51.287Z,16.22
2022-10-29T19:26:51.225Z,16.28
2022-10-29T19:27:51.168Z,16.29
2022-10-29T19:28:51.104Z,16.26
2022-10-29T19:29:51.062Z,16.16
2022-10-29T19:30:50.989Z,16.26
2022-10-29T19:31:50.913Z,16.24
2022-10-29T19:32:50.851Z,16.28
2022-10-29T19:33:50.786Z,16.32
2022-10-29T19:34:50.718Z,16.36
2022-10-29T19:35:50.703Z,16.25
2022-10-29T19:36:50.600Z,16.26
2022-10-29T19:37:50.541Z,16.26
2022-10-29T19:38:50.472Z,16.24
2022-10-29T19:39:50.427Z,16.29
2022-10-29T19:40:50.353Z,16.18
2022-10-29T19:41:50.284Z,16.29
2022-10-29T19:42:50.231Z,16.17
2022-10-29T19:43:50.191Z,16.17
2022-10-29T19:44:53.640Z,16.21
2022-10-29T19:45:50.048Z,16.21
2022-10-29T19:46:49.978Z,16.21
2022-10-29T19:47:49.911Z,16.13
2022-10-29T19:48:49.845Z,16.17
2022-10-29T19:49:49.788Z,16.18
2022-10-29T19:50:49.721Z,16.18
2022-10-29T19:51:49.668Z,16.16
2022-10-29T19:52:49.617Z,16.14
2022-10-29T19:53:49.534Z,16.13
2022-10-29T19:54:49.473Z,16.13
2022-10-29T19:55:49.410Z,16.17
2022-10-29T19:56:49.352Z,16.14
2022-10-29T19:57:49.284Z,16.13
2022-10-29T19:58:49.219Z,16.13
2022-10-29T19:59:49.163Z,16.03
2022-10-29T20:00:49.199Z,16.03
2022-10-29T20:01:49.201Z,16.00
2022-10-29T20:02:48.981Z,16.08
2022-10-29T20:03:48.908Z,16.02
2022-10-29T20:04:48.856Z,16.05
2022-10-29T20:05:48.796Z,16.03
2022-10-29T20:06:48.719Z,16.05
2022-10-29T20:07:48.658Z,15.99
2022-10-29T20:08:48.598Z,15.99
2022-10-29T20:09:48.534Z,16.00
2022-10-29T20:10:48.475Z,16.05
2022-10-29T20:11:48.428Z,16.03
2022-10-29T20:12:48.346Z,15.96
2022-10-29T20:13:48.283Z,15.91
2022-10-29T20:14:48.223Z,15.88
2022-10-29T20:15:48.169Z,16.06
2022-10-29T20:16:48.096Z,16.00
2022-10-29T20:17:48.032Z,16.00
2022-10-29T20:18:47.977Z,15.98
2022-10-29T20:19:47.909Z,15.96
2022-10-29T20:20:47.844Z,15.96
2022-10-29T20:21:47.796Z,15.83
2022-10-29T20:22:47.717Z,15.95
2022-10-29T20:23:47.662Z,15.91
2022-10-29T20:24:47.603Z,15.88
2022-10-29T20:25:47.528Z,15.85
2022-10-29T20:26:47.477Z,15.87
2022-10-29T20:27:47.408Z,15.87
2022-10-29T20:28:47.342Z,15.88
2022-10-29T20:29:47.281Z,15.84
2022-10-29T20:30:47.214Z,15.73
2022-10-29T20:31:47.179Z,15.81
2022-10-29T20:32:47.101Z,15.80
2022-10-29T20:33:47.032Z,15.72
2022-10-29T20:34:46.965Z,15.73
2022-10-29T20:35:46.907Z,15.65
2022-10-29T20:36:46.976Z,15.66
2022-10-29T20:37:46.785Z,15.62
2022-10-29T20:38:46.717Z,15.70
2022-10-29T20:39:46.652Z,15.65
2022-10-29T20:40:46.596Z,15.51
2022-10-29T20:41:46.528Z,15.58
2022-10-29T20:42:46.495Z,15.54
2022-10-29T20:43:46.402Z,15.54
2022-10-29T20:44:46.336Z,15.56
2022-10-29T20:45:46.302Z,15.47
2022-10-29T20:46:46.214Z,15.47
2022-10-29T20:47:46.150Z,15.51
2022-10-29T20:48:46.084Z,15.47
2022-10-29T20:49:46.029Z,15.47
2022-10-29T20:50:45.962Z,15.41
2022-10-29T20:51:45.896Z,15.38
2022-10-29T20:52:48.819Z,15.38
2022-10-29T20:53:45.777Z,15.33
2022-10-29T20:54:45.707Z,15.33
2022-10-29T20:55:45.643Z,15.29
2022-10-29T20:56:45.592Z,15.27
2022-10-29T20:57:45.522Z,15.19
2022-10-29T20:58:45.480Z,15.17
2022-10-29T20:59:45.422Z,15.10
2022-10-29T21:00:45.330Z,15.05
2022-10-29T21:01:45.331Z,15.07
2022-10-29T21:02:45.276Z,15.10
2022-10-29T21:03:45.144Z,15.05
2022-10-29T21:04:45.080Z,15.05
2022-10-29T21:05:45.016Z,15.01
2022-10-29T21:06:44.955Z,14.89
2022-10-29T21:07:44.896Z,14.87
2022-10-29T21:08:44.828Z,14.97
2022-10-29T21:09:44.760Z,14.79
2022-10-29T21:10:44.700Z,14.85
2022-10-29T21:11:44.635Z,14.74
2022-10-29T21:12:44.576Z,14.69
2022-10-29T21:13:44.515Z,14.77
2022-10-29T21:14:44.452Z,14.74
2022-10-29T21:15:44.397Z,14.70
2022-10-29T21:16:44.324Z,14.74
2022-10-29T21:17:44.256Z,14.73
2022-10-29T21:18:44.193Z,14.59
2022-10-29T21:19:44.133Z,14.74
2022-10-29T21:20:44.070Z,14.71
2022-10-29T21:21:44.008Z,14.61
2022-10-29T21:22:43.945Z,14.64
2022-10-29T21:23:43.883Z,14.63
2022-10-29T21:24:45.641Z,14.63
2022-10-29T21:25:43.752Z,14.64
2022-10-29T21:26:43.690Z,14.53
2022-10-29T21:27:43.643Z,14.63
2022-10-29T21:28:43.568Z,14.55
2022-10-29T21:29:43.499Z,14.56
2022-10-29T21:30:43.440Z,14.58
2022-10-29T21:31:43.377Z,14.52
2022-10-29T21:32:43.319Z,14.55
2022-10-29T21:33:43.245Z,14.56
2022-10-29T21:34:43.185Z,14.61
2022-10-29T21:35:43.123Z,14.52
2022-10-29T21:36:43.060Z,14.55
2022-10-29T21:37:42.992Z,14.53
2022-10-29T21:38:42.930Z,14.52
2022-10-29T21:39:42.868Z,14.56
2022-10-29T21:40:42.805Z,14.58
2022-10-29T21:41:42.748Z,14.55
2022-10-29T21:42:42.693Z,14.58
2022-10-29T21:43:42.613Z,14.49
2022-10-29T21:44:42.550Z,14.52
2022-10-29T21:45:42.486Z,14.49
2022-10-29T21:46:42.432Z,14.41
2022-10-29T21:47:42.359Z,14.45
2022-10-29T21:48:42.305Z,14.37
2022-10-29T21:49:42.236Z,14.37
2022-10-29T21:50:42.178Z,14.33
2022-10-29T21:51:42.108Z,14.28
2022-10-29T21:52:42.044Z,14.31
2022-10-29T21:53:41.980Z,14.22
2022-10-29T21:54:41.929Z,14.26
2022-10-29T21:55:41.855Z,14.26
2022-10-29T21:56:41.803Z,14.22
2022-10-29T21:57:41.747Z,14.11
2022-10-29T21:58:41.665Z,14.23
2022-10-29T21:59:41.595Z,14.19
2022-10-29T22:00:41.539Z,14.13
2022-10-29T22:01:41.633Z,14.13
2022-10-29T22:02:41.415Z,14.08
2022-10-29T22:03:41.417Z,14.04
2022-10-29T22:04:41.286Z,14.04
2022-10-29T22:05:41.216Z,14.05
2022-10-29T22:06:41.158Z,14.03
2022-10-29T22:07:41.094Z,14.08
2022-10-29T22:08:41.046Z,13.98
2022-10-29T22:09:40.975Z,13.97
2022-10-29T22:10:40.904Z,14.05
2022-10-29T22:11:40.841Z,13.96
2022-10-29T22:12:40.776Z,14.05
2022-10-29T22:13:40.734Z,14.04
2022-10-29T22:14:40.659Z,14.08
2022-10-29T22:15:40.584Z,14.00
2022-10-29T22:16:40.523Z,14.05
2022-10-29T22:17:40.455Z,14.01
2022-10-29T22:18:40.395Z,14.09
2022-10-29T22:19:40.331Z,14.09
2022-10-29T22:20:40.273Z,14.00
2022-10-29T22:21:40.204Z,14.09
2022-10-29T22:22:40.138Z,14.03
2022-10-29T22:23:40.079Z,14.03
2022-10-29T22:24:40.016Z,14.05
2022-10-29T22:25:39.974Z,13.94
2022-10-29T22:26:39.881Z,13.96
2022-10-29T22:27:39.826Z,14.03
2022-10-29T22:28:39.792Z,14.01
2022-10-29T22:29:39.689Z,13.98
2022-10-29T22:30:39.633Z,13.97
2022-10-29T22:31:39.570Z,13.94
2022-10-29T22:32:39.506Z,13.96
2022-10-29T22:33:39.449Z,13.97
2022-10-29T22:34:39.378Z,13.98
2022-10-29T22:35:39.312Z,14.04
2022-10-29T22:36:39.251Z,13.98
2022-10-29T22:37:39.188Z,14.00
2022-10-29T22:38:39.151Z,14.04
2022-10-29T22:39:39.057Z,13.94
2022-10-29T22:40:39.000Z,14.01
2022-10-29T22:41:38.930Z,14.05
2022-10-29T22:42:38.869Z,13.97
2022-10-29T22:43:38.813Z,13.98
2022-10-29T22:44:38.743Z,14.03
2022-10-29T22:45:38.677Z,14.09
2022-10-29T22:46:38.618Z,13.90
2022-10-29T22:47:38.550Z,13.97
2022-10-29T22:48:38.486Z,13.91
2022-10-29T22:49:38.434Z,13.86
2022-10-29T22:50:38.361Z,13.86
2022-10-29T22:51:38.294Z,13.86
2022-10-29T22:52:38.233Z,13.78
2022-10-29T22:53:38.169Z,13.78
2022-10-29T22:54:38.104Z,13.85
2022-10-29T22:55:38.044Z,13.90
2022-10-29T22:56:37.981Z,13.82
2022-10-29T22:57:37.912Z,13.85
2022-10-29T22:58:37.852Z,13.91
2022-10-29T22:59:37.793Z,13.90
2022-10-29T23:00:37.722Z,13.90
2022-10-29T23:01:40.592Z,13.93
2022-10-29T23:02:37.634Z,13.91
2022-10-29T23:03:37.532Z,13.88
2022-10-29T23:04:37.466Z,13.90
2022-10-29T23:05:37.404Z,13.91
2022-10-29T23:06:37.345Z,13.93
2022-10-29T23:07:37.278Z,13.83
2022-10-29T23:08:37.217Z,13.88
2022-10-29T23:09:37.147Z,13.86
2022-10-29T23:10:37.085Z,13.94
2022-10-29T23:11:37.022Z,13.88
2022-10-29T23:12:36.966Z,13.88
2022-10-29T23:13:36.890Z,13.82
2022-10-29T23:14:36.829Z,13.79
2022-10-29T23:15:36.785Z,13.86
2022-10-29T23:16:36.706Z,13.80
2022-10-29T23:17:36.661Z,13.79
2022-10-29T23:18:36.577Z,13.79
2022-10-29T23:19:36.508Z,13.78
2022-10-29T23:20:36.454Z,13.71
2022-10-29T23:21:36.391Z,13.68
2022-10-29T23:22:36.322Z,13.76
2022-10-29T23:23:36.264Z,13.65
2022-10-29T23:24:36.199Z,13.68
2022-10-29T23:25:36.128Z,13.72
2022-10-29T23:26:36.067Z,13.73
2022-10-29T23:27:35.997Z,13.65
2022-10-29T23:28:35.941Z,13.64
2022-10-29T23:29:35.873Z,13.67
2022-10-29T23:30:35.811Z,13.65
2022-10-29T23:31:35.748Z,13.67
2022-10-29T23:32:35.682Z,13.68
2022-10-29T23:33:35.619Z,13.65
2022-10-29T23:34:35.555Z,13.64
2022-10-29T23:35:35.499Z,13.63
2022-10-29T23:36:35.430Z,13.65
2022-10-29T23:37:35.361Z,13.64
2022-10-29T23:38:35.309Z,13.55
2022-10-29T23:39:35.241Z,13.53
2022-10-29T23:40:35.177Z,13.47
2022-10-29T23:41:35.109Z,13.43
2022-10-29T23:42:35.046Z,13.53
2022-10-29T23:43:34.977Z,13.46
2022-10-29T23:44:34.916Z,13.51
2022-10-29T23:45:34.856Z,13.42
2022-10-29T23:46:34.792Z,13.42
2022-10-29T23:47:34.732Z,13.40
2022-10-29T23:48:34.669Z,13.40
2022-10-29T23:49:34.592Z,13.40
2022-10-29T23:50:34.536Z,13.42
2022-10-29T23:52:34.409Z,13.38
2022-10-29T23:53:34.345Z,13.45
2022-10-29T23:54:34.281Z,13.51
2022-10-29T23:55:34.218Z,13.39
2022-10-29T23:56:34.151Z,13.49
2022-10-29T23:57:34.088Z,13.51
2022-10-29T23:58:34.030Z,13.54
2022-10-29T23:59:33.977Z,13.57
